sensor_id;sensor_type;location;lat;lon;timestamp;pressure;altitude;pressure_sealevel;temperature;humidity
8573;BME280;4324;42.012;24.872;2023-02-11T00:00:31;100821.34;;;-1.78;71.23
8573;BME280;4324;42.012;24.872;2023-02-11T00:02:58;100820.56;;;-1.81;71.38
8573;BME280;4324;42.012;24.872;2023-02-11T00:05:25;100828.38;;;-1.83;70.95
8573;BME280;4324;42.012;24.872;2023-02-11T00:07:52;100833.41;;;-1.77;71.02
8573;BME280;4324;42.012;24.872;2023-02-11T00:10:20;100832.72;;;-1.83;70.97
8573;BME280;4324;42.012;24.872;2023-02-11T00:12:47;100832.66;;;-1.80;70.34
8573;BME280;4324;42.012;24.872;2023-02-11T00:15:14;100849.84;;;-1.76;70.49
8573;BME280;4324;42.012;24.872;2023-02-11T00:17:41;100855.88;;;-1.76;69.83
8573;BME280;4324;42.012;24.872;2023-02-11T00:20:08;100855.03;;;-1.76;70.46
8573;BME280;4324;42.012;24.872;2023-02-11T00:22:35;100849.84;;;-1.76;71.32
8573;BME280;4324;42.012;24.872;2023-02-11T00:25:02;100853.34;;;-1.77;71.48
8573;BME280;4324;42.012;24.872;2023-02-11T00:27:30;100853.34;;;-1.77;72.22
8573;BME280;4324;42.012;24.872;2023-02-11T00:29:57;100846.53;;;-1.81;71.85
8573;BME280;4324;42.012;24.872;2023-02-11T00:32:25;100806.63;;;-2.10;71.82
8573;BME280;4324;42.012;24.872;2023-02-11T00:34:52;100844.94;;;-1.85;71.24
8573;BME280;4324;42.012;24.872;2023-02-11T00:37:19;100826.06;;;-1.92;70.80
8573;BME280;4324;42.012;24.872;2023-02-11T00:39:46;100804.88;;;-2.09;71.29
8573;BME280;4324;42.012;24.872;2023-02-11T00:42:14;100811.84;;;-2.11;70.67
8573;BME280;4324;42.012;24.872;2023-02-11T00:44:43;100847.63;;;-1.90;71.13
8573;BME280;4324;42.012;24.872;2023-02-11T00:47:09;100827.19;;;-2.02;71.94
8573;BME280;4324;42.012;24.872;2023-02-11T00:49:37;100854.56;;;-1.90;72.92
8573;BME280;4324;42.012;24.872;2023-02-11T00:52:05;100837.44;;;-1.98;72.95
8573;BME280;4324;42.012;24.872;2023-02-11T00:54:32;100849.44;;;-1.93;73.00
8573;BME280;4324;42.012;24.872;2023-02-11T00:56:58;100846.06;;;-1.96;72.06
8573;BME280;4324;42.012;24.872;2023-02-11T00:59:26;100825.56;;;-2.06;72.40
8573;BME280;4324;42.012;24.872;2023-02-11T01:01:54;100839.25;;;-2.00;72.05
8573;BME280;4324;42.012;24.872;2023-02-11T01:04:21;100827.13;;;-1.99;71.93
8573;BME280;4324;42.012;24.872;2023-02-11T01:06:49;100800.88;;;-2.21;71.29
8573;BME280;4324;42.012;24.872;2023-02-11T01:09:16;100815.44;;;-2.15;70.50
8573;BME280;4324;42.012;24.872;2023-02-11T01:11:43;100842.91;;;-2.07;71.22
8573;BME280;4324;42.012;24.872;2023-02-11T01:14:10;100832.53;;;-2.07;71.65
8573;BME280;4324;42.012;24.872;2023-02-11T01:16:37;100838.56;;;-2.06;71.31
8573;BME280;4324;42.012;24.872;2023-02-11T01:19:05;100832.63;;;-2.11;71.32
8573;BME280;4324;42.012;24.872;2023-02-11T01:21:32;100784.97;;;-2.40;70.97
8573;BME280;4324;42.012;24.872;2023-02-11T01:23:59;100802.59;;;-2.20;71.36
8573;BME280;4324;42.012;24.872;2023-02-11T01:26:26;100808.59;;;-2.18;71.25
8573;BME280;4324;42.012;24.872;2023-02-11T01:28:52;100822.34;;;-2.14;70.78
8573;BME280;4324;42.012;24.872;2023-02-11T01:31:19;100815.56;;;-2.20;71.50
8573;BME280;4324;42.012;24.872;2023-02-11T01:33:46;100812.81;;;-2.14;72.60
8573;BME280;4324;42.012;24.872;2023-02-11T01:36:15;100794.88;;;-2.23;72.50
8573;BME280;4324;42.012;24.872;2023-02-11T01:38:41;100806.94;;;-2.21;72.83
8573;BME280;4324;42.012;24.872;2023-02-11T01:41:11;100799.84;;;-2.15;73.62
8573;BME280;4324;42.012;24.872;2023-02-11T01:43:41;100797.31;;;-2.17;73.56
8573;BME280;4324;42.012;24.872;2023-02-11T01:46:19;100779.28;;;-2.22;74.53
8573;BME280;4324;42.012;24.872;2023-02-11T01:48:49;100777.53;;;-2.21;75.48
8573;BME280;4324;42.012;24.872;2023-02-11T01:51:22;100796.34;;;-2.13;74.56
8573;BME280;4324;42.012;24.872;2023-02-11T01:53:51;100785.41;;;-2.24;76.17
8573;BME280;4324;42.012;24.872;2023-02-11T01:56:40;100797.25;;;-2.14;75.63
8573;BME280;4324;42.012;24.872;2023-02-11T01:59:29;100811.13;;;-2.15;76.39
8573;BME280;4324;42.012;24.872;2023-02-11T02:02:01;100805.94;;;-2.15;75.69
8573;BME280;4324;42.012;24.872;2023-02-11T02:04:38;100799.00;;;-2.16;75.54
8573;BME280;4324;42.012;24.872;2023-02-11T02:07:12;100768.25;;;-2.30;75.17
8573;BME280;4324;42.012;24.872;2023-02-11T02:09:49;100805.03;;;-2.15;75.53
8573;BME280;4324;42.012;24.872;2023-02-11T02:12:18;100802.44;;;-2.14;75.79
8573;BME280;4324;42.012;24.872;2023-02-11T02:14:44;100800.72;;;-2.15;75.32
8573;BME280;4324;42.012;24.872;2023-02-11T02:17:20;100786.16;;;-2.21;75.17
8573;BME280;4324;42.012;24.872;2023-02-11T02:20:25;100800.81;;;-2.18;73.24
8573;BME280;4324;42.012;24.872;2023-02-11T02:23:16;100805.03;;;-2.15;72.72
8573;BME280;4324;42.012;24.872;2023-02-11T02:26:04;100807.69;;;-2.17;73.08
8573;BME280;4324;42.012;24.872;2023-02-11T02:28:55;100776.84;;;-2.28;72.60
8573;BME280;4324;42.012;24.872;2023-02-11T02:31:43;100778.59;;;-2.28;72.38
8573;BME280;4324;42.012;24.872;2023-02-11T02:34:19;100747.03;;;-2.44;72.03
8573;BME280;4324;42.012;24.872;2023-02-11T02:36:54;100775.44;;;-2.39;71.77
8573;BME280;4324;42.012;24.872;2023-02-11T02:39:26;100790.59;;;-2.24;72.66
8573;BME280;4324;42.012;24.872;2023-02-11T02:41:56;100803.56;;;-2.24;72.37
8573;BME280;4324;42.012;24.872;2023-02-11T02:44:23;100793.19;;;-2.24;73.26
8573;BME280;4324;42.012;24.872;2023-02-11T02:46:50;100800.06;;;-2.23;74.20
8573;BME280;4324;42.012;24.872;2023-02-11T02:49:19;100771.91;;;-2.37;74.14
8573;BME280;4324;42.012;24.872;2023-02-11T02:52:00;100797.47;;;-2.23;74.22
8573;BME280;4324;42.012;24.872;2023-02-11T02:54:52;100769.41;;;-2.40;74.00
8573;BME280;4324;42.012;24.872;2023-02-11T02:57:28;100785.75;;;-2.38;73.54
8573;BME280;4324;42.012;24.872;2023-02-11T03:00:04;100800.97;;;-2.24;73.38
8573;BME280;4324;42.012;24.872;2023-02-11T03:02:35;100782.16;;;-2.32;72.64
8573;BME280;4324;42.012;24.872;2023-02-11T03:05:09;100786.53;;;-2.34;72.41
8573;BME280;4324;42.012;24.872;2023-02-11T03:07:40;100796.88;;;-2.33;71.95
8573;BME280;4324;42.012;24.872;2023-02-11T03:10:12;100798.53;;;-2.30;72.70
8573;BME280;4324;42.012;24.872;2023-02-11T03:12:41;100817.47;;;-2.27;71.97
8573;BME280;4324;42.012;24.872;2023-02-11T03:15:11;100779.16;;;-2.50;71.50
8573;BME280;4324;42.012;24.872;2023-02-11T03:17:40;100806.22;;;-2.27;71.65
8573;BME280;4324;42.012;24.872;2023-02-11T03:20:12;100787.63;;;-2.43;72.41
8573;BME280;4324;42.012;24.872;2023-02-11T03:22:44;100795.25;;;-2.37;72.61
8573;BME280;4324;42.012;24.872;2023-02-11T03:25:13;100765.41;;;-2.53;73.03
8573;BME280;4324;42.012;24.872;2023-02-11T03:27:45;100767.94;;;-2.50;72.68
8573;BME280;4324;42.012;24.872;2023-02-11T03:30:16;100743.25;;;-2.65;73.70
8573;BME280;4324;42.012;24.872;2023-02-11T03:32:50;100794.50;;;-2.40;73.46
8573;BME280;4324;42.012;24.872;2023-02-11T03:35:21;100798.84;;;-2.41;73.01
8573;BME280;4324;42.012;24.872;2023-02-11T03:37:51;100782.56;;;-2.48;72.67
8573;BME280;4324;42.012;24.872;2023-02-11T03:40:20;100788.56;;;-2.46;72.21
8573;BME280;4324;42.012;24.872;2023-02-11T03:42:51;100799.56;;;-2.37;71.80
8573;BME280;4324;42.012;24.872;2023-02-11T03:45:21;100787.63;;;-2.43;72.32
8573;BME280;4324;42.012;24.872;2023-02-11T03:47:52;100789.44;;;-2.47;72.24
8573;BME280;4324;42.012;24.872;2023-02-11T03:50:22;100789.44;;;-2.47;72.73
8573;BME280;4324;42.012;24.872;2023-02-11T03:52:50;100723.03;;;-2.86;73.45
8573;BME280;4324;42.012;24.872;2023-02-11T03:55:19;100793.66;;;-2.42;73.61
8573;BME280;4324;42.012;24.872;2023-02-11T03:57:50;100796.25;;;-2.42;73.77
8573;BME280;4324;42.012;24.872;2023-02-11T04:00:18;100737.75;;;-2.87;73.62
8573;BME280;4324;42.012;24.872;2023-02-11T04:02:45;100773.44;;;-2.62;73.78
8573;BME280;4324;42.012;24.872;2023-02-11T04:05:14;100799.81;;;-2.47;74.76
8573;BME280;4324;42.012;24.872;2023-02-11T04:07:43;100806.72;;;-2.46;74.59
8573;BME280;4324;42.012;24.872;2023-02-11T04:10:11;100792.25;;;-2.54;74.43
8573;BME280;4324;42.012;24.872;2023-02-11T04:12:38;100791.31;;;-2.52;73.87
8573;BME280;4324;42.012;24.872;2023-02-11T04:15:06;100789.59;;;-2.53;74.36
8573;BME280;4324;42.012;24.872;2023-02-11T04:17:33;100763.34;;;-2.73;74.24
8573;BME280;4324;42.012;24.872;2023-02-11T04:20:00;100781.28;;;-2.65;74.50
8573;BME280;4324;42.012;24.872;2023-02-11T04:22:28;100779.63;;;-2.68;74.54
8573;BME280;4324;42.012;24.872;2023-02-11T04:24:57;100801.59;;;-2.49;74.25
8573;BME280;4324;42.012;24.872;2023-02-11T04:27:23;100797.31;;;-2.50;74.02
8573;BME280;4324;42.012;24.872;2023-02-11T04:29:51;100779.47;;;-2.62;72.95
8573;BME280;4324;42.012;24.872;2023-02-11T04:32:18;100778.50;;;-2.58;72.94
8573;BME280;4324;42.012;24.872;2023-02-11T04:34:45;100783.56;;;-2.53;73.18
8573;BME280;4324;42.012;24.872;2023-02-11T04:37:13;100685.00;;;-3.19;73.46
8573;BME280;4324;42.012;24.872;2023-02-11T04:39:40;100788.81;;;-2.55;73.60
8573;BME280;4324;42.012;24.872;2023-02-11T04:42:08;100788.75;;;-2.53;73.41
8573;BME280;4324;42.012;24.872;2023-02-11T04:44:35;100728.94;;;-2.80;73.33
8573;BME280;4324;42.012;24.872;2023-02-11T04:47:02;100697.44;;;-2.99;74.68
8573;BME280;4324;42.012;24.872;2023-02-11T04:49:29;100780.84;;;-2.49;74.04
8573;BME280;4324;42.012;24.872;2023-02-11T04:51:56;100775.66;;;-2.49;74.14
8573;BME280;4324;42.012;24.872;2023-02-11T04:54:23;100743.50;;;-2.74;74.26
8573;BME280;4324;42.012;24.872;2023-02-11T04:56:50;100776.53;;;-2.48;74.82
8573;BME280;4324;42.012;24.872;2023-02-11T04:59:18;100759.56;;;-2.61;74.72
8573;BME280;4324;42.012;24.872;2023-02-11T05:01:45;100780.75;;;-2.46;74.89
8573;BME280;4324;42.012;24.872;2023-02-11T05:04:12;100756.78;;;-2.54;74.36
8573;BME280;4324;42.012;24.872;2023-02-11T05:06:39;100767.88;;;-2.49;74.07
8573;BME280;4324;42.012;24.872;2023-02-11T05:09:06;100772.13;;;-2.45;74.66
8573;BME280;4324;42.012;24.872;2023-02-11T05:11:33;100758.47;;;-2.53;74.55
8573;BME280;4324;42.012;24.872;2023-02-11T05:14:01;100757.69;;;-2.56;74.11
8573;BME280;4324;42.012;24.872;2023-02-11T05:16:29;100749.16;;;-2.60;75.02
8573;BME280;4324;42.012;24.872;2023-02-11T05:18:56;100772.19;;;-2.48;74.60
8573;BME280;4324;42.012;24.872;2023-02-11T05:21:23;100738.78;;;-2.60;74.83
8573;BME280;4324;42.012;24.872;2023-02-11T05:23:50;100762.66;;;-2.47;74.36
8573;BME280;4324;42.012;24.872;2023-02-11T05:26:18;100769.63;;;-2.49;74.29
8573;BME280;4324;42.012;24.872;2023-02-11T05:28:45;100719.41;;;-2.79;75.21
8573;BME280;4324;42.012;24.872;2023-02-11T05:31:12;100688.00;;;-3.01;76.27
8573;BME280;4324;42.012;24.872;2023-02-11T05:33:41;100795.28;;;-2.38;77.15
8573;BME280;4324;42.012;24.872;2023-02-11T05:36:10;100798.72;;;-2.38;78.26
8573;BME280;4324;42.012;24.872;2023-02-11T05:38:38;100801.28;;;-2.36;78.42
8573;BME280;4324;42.012;24.872;2023-02-11T05:41:05;100796.19;;;-2.39;79.82
8573;BME280;4324;42.012;24.872;2023-02-11T05:43:32;100777.47;;;-2.51;80.67
8573;BME280;4324;42.012;24.872;2023-02-11T05:46:01;100747.78;;;-2.73;81.36
8573;BME280;4324;42.012;24.872;2023-02-11T05:48:28;100796.09;;;-2.36;82.22
8573;BME280;4324;42.012;24.872;2023-02-11T05:50:57;100806.41;;;-2.33;82.90
8573;BME280;4324;42.012;24.872;2023-02-11T05:53:24;100796.97;;;-2.36;83.64
8573;BME280;4324;42.012;24.872;2023-02-11T05:55:50;100795.25;;;-2.37;83.43
8573;BME280;4324;42.012;24.872;2023-02-11T05:58:17;100784.00;;;-2.37;84.51
8573;BME280;4324;42.012;24.872;2023-02-11T06:00:44;100800.97;;;-2.24;84.21
8573;BME280;4324;42.012;24.872;2023-02-11T06:03:12;100775.34;;;-2.36;84.81
8573;BME280;4324;42.012;24.872;2023-02-11T06:05:39;100803.41;;;-2.18;84.23
8573;BME280;4324;42.012;24.872;2023-02-11T06:08:07;100710.56;;;-2.72;82.68
8573;BME280;4324;42.012;24.872;2023-02-11T06:10:35;100787.78;;;-2.16;83.95
8573;BME280;4324;42.012;24.872;2023-02-11T06:13:02;100794.38;;;-2.05;82.26
8573;BME280;4324;42.012;24.872;2023-02-11T06:15:30;100798.59;;;-2.01;82.83
8573;BME280;4324;42.012;24.872;2023-02-11T06:17:57;100773.75;;;-2.09;81.78
8573;BME280;4324;42.012;24.872;2023-02-11T06:20:24;100784.81;;;-2.03;81.41
8573;BME280;4324;42.012;24.872;2023-02-11T06:22:51;100783.78;;;-1.97;80.88
8573;BME280;4324;42.012;24.872;2023-02-11T06:25:19;100767.28;;;-1.95;80.44
8573;BME280;4324;42.012;24.872;2023-02-11T06:27:46;100789.50;;;-1.84;80.07
8573;BME280;4324;42.012;24.872;2023-02-11T06:30:13;100751.84;;;-2.01;80.15
8573;BME280;4324;42.012;24.872;2023-02-11T06:32:40;100792.72;;;-1.76;79.99
8573;BME280;4324;42.012;24.872;2023-02-11T06:35:07;100785.81;;;-1.77;79.59
8573;BME280;4324;42.012;24.872;2023-02-11T06:37:34;100784.63;;;-1.67;79.26
8573;BME280;4324;42.012;24.872;2023-02-11T06:40:01;100788.13;;;-1.66;80.45
8573;BME280;4324;42.012;24.872;2023-02-11T06:42:29;100784.47;;;-1.61;80.50
8573;BME280;4324;42.012;24.872;2023-02-11T06:44:56;100768.19;;;-1.66;82.54
8573;BME280;4324;42.012;24.872;2023-02-11T06:47:23;100784.06;;;-1.47;82.49
8573;BME280;4324;42.012;24.872;2023-02-11T06:49:50;100783.41;;;-1.54;82.24
8573;BME280;4324;42.012;24.872;2023-02-11T06:52:17;100801.72;;;-1.30;84.65
8573;BME280;4324;42.012;24.872;2023-02-11T06:54:44;100800.66;;;-1.23;85.06
8573;BME280;4324;42.012;24.872;2023-02-11T06:57:11;100791.91;;;-1.20;84.86
8573;BME280;4324;42.012;24.872;2023-02-11T06:59:39;100796.81;;;-1.11;86.68
8573;BME280;4324;42.012;24.872;2023-02-11T07:02:08;100785.56;;;-1.12;85.79
8573;BME280;4324;42.012;24.872;2023-02-11T07:04:35;100777.75;;;-1.12;86.32
8573;BME280;4324;42.012;24.872;2023-02-11T07:07:02;100790.41;;;-1.00;86.78
8573;BME280;4324;42.012;24.872;2023-02-11T07:09:29;100783.28;;;-0.94;86.46
8573;BME280;4324;42.012;24.872;2023-02-11T07:11:56;100760.88;;;-0.99;87.02
8573;BME280;4324;42.012;24.872;2023-02-11T07:14:23;100748.88;;;-1.03;86.38
8573;BME280;4324;42.012;24.872;2023-02-11T07:16:52;100778.53;;;-0.82;85.40
8573;BME280;4324;42.012;24.872;2023-02-11T07:19:19;100770.69;;;-0.80;85.06
8573;BME280;4324;42.012;24.872;2023-02-11T07:21:45;100745.78;;;-0.87;83.88
8573;BME280;4324;42.012;24.872;2023-02-11T07:24:13;100744.59;;;-0.77;84.61
8573;BME280;4324;42.012;24.872;2023-02-11T07:26:43;100754.66;;;-0.68;83.42
8573;BME280;4324;42.012;24.872;2023-02-11T07:29:10;100745.94;;;-0.67;84.06
8573;BME280;4324;42.012;24.872;2023-02-11T07:31:37;100755.97;;;-0.55;84.63
8573;BME280;4324;42.012;24.872;2023-02-11T07:34:05;100745.47;;;-0.53;84.34
8573;BME280;4324;42.012;24.872;2023-02-11T07:36:32;100718.81;;;-0.60;84.54
8573;BME280;4324;42.012;24.872;2023-02-11T07:38:59;100738.13;;;-0.40;83.95
8573;BME280;4324;42.012;24.872;2023-02-11T07:41:26;100737.94;;;-0.36;84.16
8573;BME280;4324;42.012;24.872;2023-02-11T07:43:54;100752.00;;;-0.16;84.84
8573;BME280;4324;42.012;24.872;2023-02-11T07:46:22;100757.78;;;-0.08;85.58
8573;BME280;4324;42.012;24.872;2023-02-11T07:48:50;100760.91;;;0.02;86.39
8573;BME280;4324;42.012;24.872;2023-02-11T07:51:20;100750.94;;;0.13;86.10
8573;BME280;4324;42.012;24.872;2023-02-11T07:53:47;100750.84;;;0.16;86.02
8573;BME280;4324;42.012;24.872;2023-02-11T07:56:16;100736.88;;;0.17;85.29
8573;BME280;4324;42.012;24.872;2023-02-11T07:58:43;100752.91;;;0.30;85.40
8573;BME280;4324;42.012;24.872;2023-02-11T08:01:12;100751.28;;;0.27;85.54
8573;BME280;4324;42.012;24.872;2023-02-11T08:03:39;100754.50;;;0.34;85.54
8573;BME280;4324;42.012;24.872;2023-02-11T08:06:09;100761.22;;;0.39;85.27
8573;BME280;4324;42.012;24.872;2023-02-11T08:08:38;100757.59;;;0.43;84.93
8573;BME280;4324;42.012;24.872;2023-02-11T08:11:06;100743.06;;;0.38;84.97
8573;BME280;4324;42.012;24.872;2023-02-11T08:13:33;100736.09;;;0.38;85.07
8573;BME280;4324;42.012;24.872;2023-02-11T08:16:00;100752.88;;;0.53;84.63
8573;BME280;4324;42.012;24.872;2023-02-11T08:18:28;100748.63;;;0.51;84.50
8573;BME280;4324;42.012;24.872;2023-02-11T08:20:55;100734.97;;;0.44;84.25
8573;BME280;4324;42.012;24.872;2023-02-11T08:23:21;100741.50;;;0.56;83.67
8573;BME280;4324;42.012;24.872;2023-02-11T08:25:50;100700.78;;;0.30;83.12
8573;BME280;4324;42.012;24.872;2023-02-11T08:28:17;100745.69;;;0.60;83.67
8573;BME280;4324;42.012;24.872;2023-02-11T08:30:43;100728.28;;;0.60;83.16
8573;BME280;4324;42.012;24.872;2023-02-11T08:33:10;100730.81;;;0.62;82.30
8573;BME280;4324;42.012;24.872;2023-02-11T08:35:37;100722.88;;;0.65;81.47
8573;BME280;4324;42.012;24.872;2023-02-11T08:38:05;100732.16;;;0.72;81.41
8573;BME280;4324;42.012;24.872;2023-02-11T08:40:32;100708.75;;;0.70;81.90
8573;BME280;4324;42.012;24.872;2023-02-11T08:43:00;100725.53;;;0.85;82.09
8573;BME280;4324;42.012;24.872;2023-02-11T08:45:27;100714.94;;;0.90;82.56
8573;BME280;4324;42.012;24.872;2023-02-11T08:47:54;100720.75;;;0.96;82.40
8573;BME280;4324;42.012;24.872;2023-02-11T08:50:21;100708.59;;;0.95;82.33
8573;BME280;4324;42.012;24.872;2023-02-11T08:52:48;100705.09;;;0.96;81.94
8573;BME280;4324;42.012;24.872;2023-02-11T08:55:17;100701.16;;;1.07;82.30
8573;BME280;4324;42.012;24.872;2023-02-11T08:57:43;100707.94;;;1.11;82.24
8573;BME280;4324;42.012;24.872;2023-02-11T09:00:13;100706.03;;;1.16;79.35
8573;BME280;4324;42.012;24.872;2023-02-11T09:02:41;100718.94;;;1.19;79.32
8573;BME280;4324;42.012;24.872;2023-02-11T09:05:08;100704.00;;;1.23;78.45
8573;BME280;4324;42.012;24.872;2023-02-11T09:07:35;100709.75;;;1.31;78.25
8573;BME280;4324;42.012;24.872;2023-02-11T09:10:02;100695.69;;;1.33;78.81
8573;BME280;4324;42.012;24.872;2023-02-11T09:12:28;100721.16;;;1.49;79.08
8573;BME280;4324;42.012;24.872;2023-02-11T09:14:55;100672.34;;;1.30;78.18
8573;BME280;4324;42.012;24.872;2023-02-11T09:17:24;100705.88;;;1.60;78.74
8573;BME280;4324;42.012;24.872;2023-02-11T09:19:51;100689.28;;;1.61;79.39
8573;BME280;4324;42.012;24.872;2023-02-11T09:22:18;100703.69;;;1.69;78.49
8573;BME280;4324;42.012;24.872;2023-02-11T09:24:45;100698.25;;;1.74;78.33
8573;BME280;4324;42.012;24.872;2023-02-11T09:27:12;100686.91;;;1.75;78.55
8573;BME280;4324;42.012;24.872;2023-02-11T09:29:39;100697.59;;;1.89;79.17
8573;BME280;4324;42.012;24.872;2023-02-11T09:32:05;100684.19;;;1.97;79.32
8573;BME280;4324;42.012;24.872;2023-02-11T09:34:34;100687.41;;;2.02;79.74
8573;BME280;4324;42.012;24.872;2023-02-11T09:37:01;100683.47;;;2.12;80.97
8573;BME280;4324;42.012;24.872;2023-02-11T09:39:28;100668.78;;;2.10;80.01
8573;BME280;4324;42.012;24.872;2023-02-11T09:42:09;100668.38;;;2.19;79.04
8573;BME280;4324;42.012;24.872;2023-02-11T09:44:45;100659.59;;;2.20;79.21
8573;BME280;4324;42.012;24.872;2023-02-11T09:47:24;100664.31;;;2.31;79.95
8573;BME280;4324;42.012;24.872;2023-02-11T09:49:57;100661.34;;;2.38;80.48
8573;BME280;4324;42.012;24.872;2023-02-11T09:52:32;100654.19;;;2.42;80.64
8573;BME280;4324;42.012;24.872;2023-02-11T09:55:04;100640.75;;;2.50;80.69
8573;BME280;4324;42.012;24.872;2023-02-11T09:57:33;100635.28;;;2.54;80.85
8573;BME280;4324;42.012;24.872;2023-02-11T10:00:06;100619.50;;;2.56;81.15
8573;BME280;4324;42.012;24.872;2023-02-11T10:05:41;100630.09;;;2.72;80.69
8573;BME280;4324;42.012;24.872;2023-02-11T10:08:17;100603.28;;;2.66;80.43
8573;BME280;4324;42.012;24.872;2023-02-11T10:10:51;100604.63;;;2.75;79.75
8573;BME280;4324;42.012;24.872;2023-02-11T10:13:32;100591.53;;;2.75;80.26
8573;BME280;4324;42.012;24.872;2023-02-11T10:16:08;100589.28;;;2.85;80.20
8573;BME280;4324;42.012;24.872;2023-02-11T10:18:58;100582.81;;;2.92;80.08
8573;BME280;4324;42.012;24.872;2023-02-11T10:21:37;100583.06;;;3.05;80.59
8573;BME280;4324;42.012;24.872;2023-02-11T10:24:13;100581.97;;;3.09;80.94
8573;BME280;4324;42.012;24.872;2023-02-11T10:26:42;100586.84;;;3.15;80.99
8573;BME280;4324;42.012;24.872;2023-02-11T10:29:17;100586.53;;;3.21;81.01
8573;BME280;4324;42.012;24.872;2023-02-11T10:31:47;100575.06;;;3.24;80.73
8573;BME280;4324;42.012;24.872;2023-02-11T10:34:15;100565.44;;;3.24;80.67
8573;BME280;4324;42.012;24.872;2023-02-11T10:36:44;100567.91;;;3.27;80.78
8573;BME280;4324;42.012;24.872;2023-02-11T10:39:13;100553.72;;;3.31;81.38
8573;BME280;4324;42.012;24.872;2023-02-11T10:41:43;100542.25;;;3.34;81.09
8573;BME280;4324;42.012;24.872;2023-02-11T10:44:20;100541.22;;;3.36;80.92
8573;BME280;4324;42.012;24.872;2023-02-11T10:46:49;100530.69;;;3.38;81.23
8573;BME280;4324;42.012;24.872;2023-02-11T10:49:36;100536.41;;;3.45;80.19
8573;BME280;4324;42.012;24.872;2023-02-11T10:52:29;100519.94;;;3.43;79.96
8573;BME280;4324;42.012;24.872;2023-02-11T10:54:58;100525.63;;;3.51;79.46
8573;BME280;4324;42.012;24.872;2023-02-11T10:57:29;100518.34;;;3.56;79.42
8573;BME280;4324;42.012;24.872;2023-02-11T10:59:59;100518.84;;;3.62;80.02
8573;BME280;4324;42.012;24.872;2023-02-11T11:02:29;100497.38;;;3.56;79.59
8573;BME280;4324;42.012;24.872;2023-02-11T11:05:02;100515.81;;;3.70;78.12
8573;BME280;4324;42.012;24.872;2023-02-11T11:07:32;100505.16;;;3.73;77.67
8573;BME280;4324;42.012;24.872;2023-02-11T11:10:03;100509.72;;;3.85;76.92
8573;BME280;4324;42.012;24.872;2023-02-11T11:12:34;100489.78;;;3.83;75.91
8573;BME280;4324;42.012;24.872;2023-02-11T11:15:14;100484.09;;;3.91;75.71
8573;BME280;4324;42.012;24.872;2023-02-11T11:17:43;100490.59;;;3.99;75.83
8573;BME280;4324;42.012;24.872;2023-02-11T11:20:29;100477.22;;;4.04;75.59
8573;BME280;4324;42.012;24.872;2023-02-11T11:23:14;100469.09;;;4.08;75.67
8573;BME280;4324;42.012;24.872;2023-02-11T11:25:44;100468.84;;;4.13;76.31
8573;BME280;4324;42.012;24.872;2023-02-11T11:28:23;100437.72;;;4.07;76.18
8573;BME280;4324;42.012;24.872;2023-02-11T11:30:51;100432.31;;;4.10;76.58
8573;BME280;4324;42.012;24.872;2023-02-11T11:33:21;100407.38;;;4.03;77.20
8573;BME280;4324;42.012;24.872;2023-02-11T11:35:59;100426.78;;;4.15;77.52
8573;BME280;4324;42.012;24.872;2023-02-11T11:38:29;100430.66;;;4.23;77.59
8573;BME280;4324;42.012;24.872;2023-02-11T11:41:19;100408.44;;;4.15;76.39
8573;BME280;4324;42.012;24.872;2023-02-11T11:44:00;100424.69;;;4.35;75.47
8573;BME280;4324;42.012;24.872;2023-02-11T11:46:31;100414.19;;;4.35;75.83
8573;BME280;4324;42.012;24.872;2023-02-11T11:49:06;100417.38;;;4.41;75.78
8573;BME280;4324;42.012;24.872;2023-02-11T11:51:41;100387.84;;;4.37;76.69
8573;BME280;4324;42.012;24.872;2023-02-11T11:54:12;100403.53;;;4.53;76.99
8573;BME280;4324;42.012;24.872;2023-02-11T11:56:49;100388.63;;;4.53;77.02
8573;BME280;4324;42.012;24.872;2023-02-11T11:59:16;100381.59;;;4.54;77.37
8573;BME280;4324;42.012;24.872;2023-02-11T12:01:51;100391.34;;;4.66;76.65
8573;BME280;4324;42.012;24.872;2023-02-11T12:04:57;100384.69;;;4.60;77.21
8573;BME280;4324;42.012;24.872;2023-02-11T12:07:39;100270.59;;;3.96;76.79
8573;BME280;4324;42.012;24.872;2023-02-11T12:10:35;100356.97;;;4.56;77.29
8573;BME280;4324;42.012;24.872;2023-02-11T12:13:17;100369.78;;;4.75;77.12
8573;BME280;4324;42.012;24.872;2023-02-11T12:15:54;100365.09;;;4.80;76.76
8573;BME280;4324;42.012;24.872;2023-02-11T12:21:27;100356.66;;;4.90;77.24
8573;BME280;4324;42.012;24.872;2023-02-11T12:24:07;100360.34;;;5.00;76.87
8573;BME280;4324;42.012;24.872;2023-02-11T12:26:46;100345.09;;;4.92;77.11
8573;BME280;4324;42.012;24.872;2023-02-11T12:29:22;100354.19;;;5.01;77.10
8573;BME280;4324;42.012;24.872;2023-02-11T12:32:17;100354.84;;;5.04;77.00
8573;BME280;4324;42.012;24.872;2023-02-11T12:35:00;100352.94;;;5.06;77.25
8573;BME280;4324;42.012;24.872;2023-02-11T12:37:41;100352.88;;;5.08;77.21
8573;BME280;4324;42.012;24.872;2023-02-11T12:40:16;100345.00;;;5.08;77.79
8573;BME280;4324;42.012;24.872;2023-02-11T12:42:57;100282.25;;;4.76;77.73
8573;BME280;4324;42.012;24.872;2023-02-11T12:46:08;100328.38;;;5.07;77.74
8573;BME280;4324;42.012;24.872;2023-02-11T12:52:18;100314.09;;;5.12;76.30
8573;BME280;4324;42.012;24.872;2023-02-11T12:54:54;100338.53;;;5.26;75.38
8573;BME280;4324;42.012;24.872;2023-02-11T12:57:25;100327.81;;;5.29;75.79
8573;BME280;4324;42.012;24.872;2023-02-11T12:59:59;100329.31;;;5.33;76.08
8573;BME280;4324;42.012;24.872;2023-02-11T13:02:35;100334.56;;;5.33;75.88
8573;BME280;4324;42.012;24.872;2023-02-11T13:05:15;100322.38;;;5.32;75.20
8573;BME280;4324;42.012;24.872;2023-02-11T13:07:46;100314.50;;;5.32;75.00
8573;BME280;4324;42.012;24.872;2023-02-11T13:10:24;100318.41;;;5.40;75.14
8573;BME280;4324;42.012;24.872;2023-02-11T13:12:53;100318.41;;;5.40;74.93
8573;BME280;4324;42.012;24.872;2023-02-11T13:15:40;100296.75;;;5.36;73.74
8573;BME280;4324;42.012;24.872;2023-02-11T13:18:16;100305.81;;;5.45;73.95
8573;BME280;4324;42.012;24.872;2023-02-11T13:20:50;100298.16;;;5.42;73.83
8573;BME280;4324;42.012;24.872;2023-02-11T13:23:22;100247.72;;;5.09;73.35
8573;BME280;4324;42.012;24.872;2023-02-11T13:25:53;100270.03;;;5.29;73.08
8573;BME280;4324;42.012;24.872;2023-02-11T13:28:31;100293.72;;;5.42;72.03
8573;BME280;4324;42.012;24.872;2023-02-11T13:31:02;100297.53;;;5.51;72.25
8573;BME280;4324;42.012;24.872;2023-02-11T13:33:35;100300.16;;;5.51;72.33